sensor_id;sensor_type;location;lat;lon;timestamp;temperature;humidity
14079;DHT22;7115;50.150;8.568;2024-03-02T00:00:51;7.20;99.90
14079;DHT22;7115;50.150;8.568;2024-03-02T00:03:19;7.20;99.90
14079;DHT22;7115;50.150;8.568;2024-03-02T00:05:50;7.20;99.90
14079;DHT22;7115;50.150;8.568;2024-03-02T00:08:23;7.20;99.90
14079;DHT22;7115;50.150;8.568;2024-03-02T00:10:51;7.20;99.90
14079;DHT22;7115;50.150;8.568;2024-03-02T00:13:21;7.10;99.90
14079;DHT22;7115;50.150;8.568;2024-03-02T00:15:54;7.10;99.90
14079;DHT22;7115;50.150;8.568;2024-03-02T00:18:25;7.10;99.90
14079;DHT22;7115;50.150;8.568;2024-03-02T00:20:54;7.10;99.90
14079;DHT22;7115;50.150;8.568;2024-03-02T00:23:22;7.00;99.90
14079;DHT22;7115;50.150;8.568;2024-03-02T00:25:50;7.00;99.90
14079;DHT22;7115;50.150;8.568;2024-03-02T00:28:21;7.00;99.90
14079;DHT22;7115;50.150;8.568;2024-03-02T00:30:56;6.90;99.90
14079;DHT22;7115;50.150;8.568;2024-03-02T00:33:27;6.90;99.90
14079;DHT22;7115;50.150;8.568;2024-03-02T00:35:56;6.90;99.90
14079;DHT22;7115;50.150;8.568;2024-03-02T00:38:24;6.90;99.90
14079;DHT22;7115;50.150;8.568;2024-03-02T00:40:51;7.00;99.90
14079;DHT22;7115;50.150;8.568;2024-03-02T00:43:44;7.00;99.90
14079;DHT22;7115;50.150;8.568;2024-03-02T00:46:18;7.00;99.90
14079;DHT22;7115;50.150;8.568;2024-03-02T00:48:53;7.00;99.90
14079;DHT22;7115;50.150;8.568;2024-03-02T00:51:22;7.00;99.90
14079;DHT22;7115;50.150;8.568;2024-03-02T00:53:49;7.00;99.90
14079;DHT22;7115;50.150;8.568;2024-03-02T00:56:17;6.90;99.90
14079;DHT22;7115;50.150;8.568;2024-03-02T00:58:44;6.90;99.90
14079;DHT22;7115;50.150;8.568;2024-03-02T01:01:11;6.90;99.90
14079;DHT22;7115;50.150;8.568;2024-03-02T01:03:40;6.90;99.90
14079;DHT22;7115;50.150;8.568;2024-03-02T01:06:08;6.80;99.90
14079;DHT22;7115;50.150;8.568;2024-03-02T01:08:36;6.80;99.90
14079;DHT22;7115;50.150;8.568;2024-03-02T01:11:03;6.80;99.90
14079;DHT22;7115;50.150;8.568;2024-03-02T01:13:31;6.80;99.90
14079;DHT22;7115;50.150;8.568;2024-03-02T01:15:58;6.70;99.90
14079;DHT22;7115;50.150;8.568;2024-03-02T01:18:26;6.70;99.90
14079;DHT22;7115;50.150;8.568;2024-03-02T01:20:54;6.70;99.90
14079;DHT22;7115;50.150;8.568;2024-03-02T01:23:24;6.70;99.90
14079;DHT22;7115;50.150;8.568;2024-03-02T01:25:52;6.70;99.90
14079;DHT22;7115;50.150;8.568;2024-03-02T01:28:19;6.60;99.90
14079;DHT22;7115;50.150;8.568;2024-03-02T01:30:47;6.60;99.90
14079;DHT22;7115;50.150;8.568;2024-03-02T01:33:15;6.60;99.90
14079;DHT22;7115;50.150;8.568;2024-03-02T01:35:42;6.60;99.90
14079;DHT22;7115;50.150;8.568;2024-03-02T01:38:10;6.50;99.90
14079;DHT22;7115;50.150;8.568;2024-03-02T01:40:38;6.50;99.90
14079;DHT22;7115;50.150;8.568;2024-03-02T01:43:05;6.40;99.90
14079;DHT22;7115;50.150;8.568;2024-03-02T01:45:32;6.40;99.90
14079;DHT22;7115;50.150;8.568;2024-03-02T01:48:00;6.40;99.90
14079;DHT22;7115;50.150;8.568;2024-03-02T01:50:27;6.40;99.90
14079;DHT22;7115;50.150;8.568;2024-03-02T01:52:56;6.40;99.90
14079;DHT22;7115;50.150;8.568;2024-03-02T01:55:24;6.40;99.90
14079;DHT22;7115;50.150;8.568;2024-03-02T01:57:52;6.40;99.90
14079;DHT22;7115;50.150;8.568;2024-03-02T02:00:19;6.40;99.90
14079;DHT22;7115;50.150;8.568;2024-03-02T02:02:46;6.40;99.90
14079;DHT22;7115;50.150;8.568;2024-03-02T02:05:14;6.40;99.90
14079;DHT22;7115;50.150;8.568;2024-03-02T02:07:42;6.40;99.90
14079;DHT22;7115;50.150;8.568;2024-03-02T02:10:10;6.40;99.90
14079;DHT22;7115;50.150;8.568;2024-03-02T02:12:38;6.40;99.90
14079;DHT22;7115;50.150;8.568;2024-03-02T02:15:21;6.40;99.90
14079;DHT22;7115;50.150;8.568;2024-03-02T02:17:48;6.40;99.90
14079;DHT22;7115;50.150;8.568;2024-03-02T02:20:15;6.30;99.90
14079;DHT22;7115;50.150;8.568;2024-03-02T02:22:57;6.30;99.90
14079;DHT22;7115;50.150;8.568;2024-03-02T02:25:24;6.30;99.90
14079;DHT22;7115;50.150;8.568;2024-03-02T02:27:52;6.30;99.90
14079;DHT22;7115;50.150;8.568;2024-03-02T02:30:20;6.20;99.90
14079;DHT22;7115;50.150;8.568;2024-03-02T02:32:47;6.20;99.90
14079;DHT22;7115;50.150;8.568;2024-03-02T02:35:15;6.20;99.90
14079;DHT22;7115;50.150;8.568;2024-03-02T02:37:42;6.20;99.90
14079;DHT22;7115;50.150;8.568;2024-03-02T02:40:12;6.20;99.90
14079;DHT22;7115;50.150;8.568;2024-03-02T02:42:39;6.20;99.90
14079;DHT22;7115;50.150;8.568;2024-03-02T02:45:07;6.20;99.90
14079;DHT22;7115;50.150;8.568;2024-03-02T02:47:34;6.10;99.90
14079;DHT22;7115;50.150;8.568;2024-03-02T02:50:02;6.10;99.90
14079;DHT22;7115;50.150;8.568;2024-03-02T02:52:33;6.10;99.90
14079;DHT22;7115;50.150;8.568;2024-03-02T02:55:00;6.10;99.90
14079;DHT22;7115;50.150;8.568;2024-03-02T02:57:29;6.10;99.90
14079;DHT22;7115;50.150;8.568;2024-03-02T02:59:58;6.00;99.90
14079;DHT22;7115;50.150;8.568;2024-03-02T03:02:25;6.00;99.90
14079;DHT22;7115;50.150;8.568;2024-03-02T03:04:54;6.00;99.90
14079;DHT22;7115;50.150;8.568;2024-03-02T03:07:23;6.00;99.90
14079;DHT22;7115;50.150;8.568;2024-03-02T03:09:50;5.90;99.90
14079;DHT22;7115;50.150;8.568;2024-03-02T03:12:18;5.90;99.90
14079;DHT22;7115;50.150;8.568;2024-03-02T03:14:46;5.90;99.90
14079;DHT22;7115;50.150;8.568;2024-03-02T03:17:13;6.00;99.90
14079;DHT22;7115;50.150;8.568;2024-03-02T03:19:40;6.00;99.90
14079;DHT22;7115;50.150;8.568;2024-03-02T03:22:07;6.00;99.90
14079;DHT22;7115;50.150;8.568;2024-03-02T03:24:34;6.10;99.90
14079;DHT22;7115;50.150;8.568;2024-03-02T03:27:01;6.00;99.90
14079;DHT22;7115;50.150;8.568;2024-03-02T03:29:28;6.10;99.90
14079;DHT22;7115;50.150;8.568;2024-03-02T03:31:56;6.00;99.90
14079;DHT22;7115;50.150;8.568;2024-03-02T03:34:23;6.00;99.90
14079;DHT22;7115;50.150;8.568;2024-03-02T03:36:50;6.00;99.90
14079;DHT22;7115;50.150;8.568;2024-03-02T03:39:17;6.00;99.90
14079;DHT22;7115;50.150;8.568;2024-03-02T03:41:44;6.00;99.90
14079;DHT22;7115;50.150;8.568;2024-03-02T03:44:11;5.90;99.90
14079;DHT22;7115;50.150;8.568;2024-03-02T03:46:38;5.90;99.90
14079;DHT22;7115;50.150;8.568;2024-03-02T03:49:07;5.90;99.90
14079;DHT22;7115;50.150;8.568;2024-03-02T03:51:34;5.90;99.90
14079;DHT22;7115;50.150;8.568;2024-03-02T03:54:02;5.80;99.90
14079;DHT22;7115;50.150;8.568;2024-03-02T03:56:29;5.80;99.90
14079;DHT22;7115;50.150;8.568;2024-03-02T03:58:56;5.80;99.90
14079;DHT22;7115;50.150;8.568;2024-03-02T04:01:23;5.80;99.90
14079;DHT22;7115;50.150;8.568;2024-03-02T04:03:50;5.80;99.90
14079;DHT22;7115;50.150;8.568;2024-03-02T04:06:18;5.80;99.90
14079;DHT22;7115;50.150;8.568;2024-03-02T04:08:45;5.80;99.90
14079;DHT22;7115;50.150;8.568;2024-03-02T04:11:12;5.80;99.90
14079;DHT22;7115;50.150;8.568;2024-03-02T04:13:39;5.80;99.90
14079;DHT22;7115;50.150;8.568;2024-03-02T04:16:06;5.80;99.90
14079;DHT22;7115;50.150;8.568;2024-03-02T04:18:33;5.80;99.90
14079;DHT22;7115;50.150;8.568;2024-03-02T04:21:00;5.80;99.90
14079;DHT22;7115;50.150;8.568;2024-03-02T04:23:28;5.70;99.90
14079;DHT22;7115;50.150;8.568;2024-03-02T04:25:55;5.70;99.90
14079;DHT22;7115;50.150;8.568;2024-03-02T04:28:22;5.70;99.90
14079;DHT22;7115;50.150;8.568;2024-03-02T04:30:49;5.80;99.90
14079;DHT22;7115;50.150;8.568;2024-03-02T04:33:16;5.80;99.90
14079;DHT22;7115;50.150;8.568;2024-03-02T04:35:43;5.80;99.90
14079;DHT22;7115;50.150;8.568;2024-03-02T04:38:11;5.80;99.90
14079;DHT22;7115;50.150;8.568;2024-03-02T04:40:39;5.80;99.90
14079;DHT22;7115;50.150;8.568;2024-03-02T04:43:06;5.80;99.90
14079;DHT22;7115;50.150;8.568;2024-03-02T04:45:33;5.80;99.90
14079;DHT22;7115;50.150;8.568;2024-03-02T04:48:00;5.80;99.90
14079;DHT22;7115;50.150;8.568;2024-03-02T04:50:27;5.80;99.90
14079;DHT22;7115;50.150;8.568;2024-03-02T04:52:54;5.80;99.90
14079;DHT22;7115;50.150;8.568;2024-03-02T04:55:20;5.80;99.90
14079;DHT22;7115;50.150;8.568;2024-03-02T04:57:51;5.80;99.90
14079;DHT22;7115;50.150;8.568;2024-03-02T05:00:21;5.80;99.90
14079;DHT22;7115;50.150;8.568;2024-03-02T05:02:48;5.80;99.90
14079;DHT22;7115;50.150;8.568;2024-03-02T05:05:16;5.80;99.90
14079;DHT22;7115;50.150;8.568;2024-03-02T05:07:43;5.80;99.90
14079;DHT22;7115;50.150;8.568;2024-03-02T05:10:11;5.80;99.90
14079;DHT22;7115;50.150;8.568;2024-03-02T05:12:41;5.80;99.90
14079;DHT22;7115;50.150;8.568;2024-03-02T05:15:14;5.80;99.90
14079;DHT22;7115;50.150;8.568;2024-03-02T05:17:41;5.80;99.90
14079;DHT22;7115;50.150;8.568;2024-03-02T05:20:12;5.80;99.90
14079;DHT22;7115;50.150;8.568;2024-03-02T05:22:39;5.70;99.90
14079;DHT22;7115;50.150;8.568;2024-03-02T05:25:07;5.70;99.90
14079;DHT22;7115;50.150;8.568;2024-03-02T05:27:34;5.70;99.90
14079;DHT22;7115;50.150;8.568;2024-03-02T05:30:01;5.70;99.90
14079;DHT22;7115;50.150;8.568;2024-03-02T05:32:30;5.70;99.90
14079;DHT22;7115;50.150;8.568;2024-03-02T05:34:57;5.70;99.90
14079;DHT22;7115;50.150;8.568;2024-03-02T05:37:24;5.70;99.90
14079;DHT22;7115;50.150;8.568;2024-03-02T05:39:50;5.60;99.90
14079;DHT22;7115;50.150;8.568;2024-03-02T05:42:17;5.60;99.90
14079;DHT22;7115;50.150;8.568;2024-03-02T05:44:45;5.60;99.90
14079;DHT22;7115;50.150;8.568;2024-03-02T05:47:12;5.60;99.90
14079;DHT22;7115;50.150;8.568;2024-03-02T05:49:40;5.50;99.90
14079;DHT22;7115;50.150;8.568;2024-03-02T05:52:07;5.50;99.90
14079;DHT22;7115;50.150;8.568;2024-03-02T05:54:34;5.50;99.90
14079;DHT22;7115;50.150;8.568;2024-03-02T05:57:01;5.50;99.90
14079;DHT22;7115;50.150;8.568;2024-03-02T05:59:44;5.50;99.90
14079;DHT22;7115;50.150;8.568;2024-03-02T06:02:11;5.50;99.90
14079;DHT22;7115;50.150;8.568;2024-03-02T06:04:38;5.50;99.90
14079;DHT22;7115;50.150;8.568;2024-03-02T06:07:06;5.60;99.90
14079;DHT22;7115;50.150;8.568;2024-03-02T06:09:33;5.60;99.90
14079;DHT22;7115;50.150;8.568;2024-03-02T06:12:00;5.60;99.90
14079;DHT22;7115;50.150;8.568;2024-03-02T06:14:27;5.70;99.90
14079;DHT22;7115;50.150;8.568;2024-03-02T06:16:54;5.70;99.90
14079;DHT22;7115;50.150;8.568;2024-03-02T06:19:21;5.70;99.90
14079;DHT22;7115;50.150;8.568;2024-03-02T06:21:48;5.80;99.90
14079;DHT22;7115;50.150;8.568;2024-03-02T06:24:17;5.80;99.90
14079;DHT22;7115;50.150;8.568;2024-03-02T06:26:44;5.80;99.90
14079;DHT22;7115;50.150;8.568;2024-03-02T06:29:11;5.90;99.90
14079;DHT22;7115;50.150;8.568;2024-03-02T06:31:37;5.90;99.90
14079;DHT22;7115;50.150;8.568;2024-03-02T06:34:04;5.90;99.90
14079;DHT22;7115;50.150;8.568;2024-03-02T06:36:32;5.90;99.90
14079;DHT22;7115;50.150;8.568;2024-03-02T06:38:59;6.00;99.90
14079;DHT22;7115;50.150;8.568;2024-03-02T06:41:27;6.00;99.90
14079;DHT22;7115;50.150;8.568;2024-03-02T06:43:54;6.10;99.90
14079;DHT22;7115;50.150;8.568;2024-03-02T06:46:27;6.10;99.90
14079;DHT22;7115;50.150;8.568;2024-03-02T06:48:54;6.10;99.90
14079;DHT22;7115;50.150;8.568;2024-03-02T06:51:21;6.20;99.90
14079;DHT22;7115;50.150;8.568;2024-03-02T06:53:48;6.20;99.90
14079;DHT22;7115;50.150;8.568;2024-03-02T06:56:15;6.30;99.90
14079;DHT22;7115;50.150;8.568;2024-03-02T06:58:44;6.30;99.90
14079;DHT22;7115;50.150;8.568;2024-03-02T07:01:11;6.40;99.90
14079;DHT22;7115;50.150;8.568;2024-03-02T07:03:38;6.40;99.90
14079;DHT22;7115;50.150;8.568;2024-03-02T07:06:06;6.50;99.90
14079;DHT22;7115;50.150;8.568;2024-03-02T07:08:33;6.60;99.90
14079;DHT22;7115;50.150;8.568;2024-03-02T07:11:00;6.60;99.90
14079;DHT22;7115;50.150;8.568;2024-03-02T07:13:28;6.60;99.90
14079;DHT22;7115;50.150;8.568;2024-03-02T07:15:56;6.70;99.90
14079;DHT22;7115;50.150;8.568;2024-03-02T07:18:29;6.70;99.90
14079;DHT22;7115;50.150;8.568;2024-03-02T07:20:57;6.70;99.90
14079;DHT22;7115;50.150;8.568;2024-03-02T07:23:28;6.80;99.90
14079;DHT22;7115;50.150;8.568;2024-03-02T07:25:55;6.80;99.90
14079;DHT22;7115;50.150;8.568;2024-03-02T07:28:26;6.80;99.90
14079;DHT22;7115;50.150;8.568;2024-03-02T07:30:59;6.90;99.90
14079;DHT22;7115;50.150;8.568;2024-03-02T07:33:27;6.90;99.90
14079;DHT22;7115;50.150;8.568;2024-03-02T07:35:54;7.00;99.90
14079;DHT22;7115;50.150;8.568;2024-03-02T07:38:21;7.20;99.90
14079;DHT22;7115;50.150;8.568;2024-03-02T07:40:48;7.40;99.90
14079;DHT22;7115;50.150;8.568;2024-03-02T07:43:19;7.60;99.90
14079;DHT22;7115;50.150;8.568;2024-03-02T07:45:46;8.10;99.90
14079;DHT22;7115;50.150;8.568;2024-03-02T07:48:15;8.80;99.90
14079;DHT22;7115;50.150;8.568;2024-03-02T07:50:42;9.70;99.90
14079;DHT22;7115;50.150;8.568;2024-03-02T07:53:10;10.50;99.90
14079;DHT22;7115;50.150;8.568;2024-03-02T07:55:36;11.40;99.90
14079;DHT22;7115;50.150;8.568;2024-03-02T07:58:04;12.20;99.90
14079;DHT22;7115;50.150;8.568;2024-03-02T08:00:31;13.00;99.90
14079;DHT22;7115;50.150;8.568;2024-03-02T08:02:58;13.80;99.90
14079;DHT22;7115;50.150;8.568;2024-03-02T08:05:26;14.70;99.90
14079;DHT22;7115;50.150;8.568;2024-03-02T08:07:54;15.40;99.90
14079;DHT22;7115;50.150;8.568;2024-03-02T08:10:21;15.80;99.90
14079;DHT22;7115;50.150;8.568;2024-03-02T08:12:48;15.80;99.90
14079;DHT22;7115;50.150;8.568;2024-03-02T08:15:15;15.60;99.90
14079;DHT22;7115;50.150;8.568;2024-03-02T08:17:42;15.30;99.90
14079;DHT22;7115;50.150;8.568;2024-03-02T08:20:16;15.10;99.90
14079;DHT22;7115;50.150;8.568;2024-03-02T08:22:45;14.90;99.90
14079;DHT22;7115;50.150;8.568;2024-03-02T08:25:12;14.80;99.90
14079;DHT22;7115;50.150;8.568;2024-03-02T08:27:40;14.80;99.90
14079;DHT22;7115;50.150;8.568;2024-03-02T08:30:07;14.80;99.90
14079;DHT22;7115;50.150;8.568;2024-03-02T08:32:36;14.70;99.90
14079;DHT22;7115;50.150;8.568;2024-03-02T08:35:05;14.30;99.90
14079;DHT22;7115;50.150;8.568;2024-03-02T08:37:32;13.90;99.90
14079;DHT22;7115;50.150;8.568;2024-03-02T08:40:00;13.50;99.90
14079;DHT22;7115;50.150;8.568;2024-03-02T08:42:28;13.20;99.90
14079;DHT22;7115;50.150;8.568;2024-03-02T08:44:55;12.80;99.90
14079;DHT22;7115;50.150;8.568;2024-03-02T08:47:22;12.40;99.90
14079;DHT22;7115;50.150;8.568;2024-03-02T08:49:49;12.10;99.90
14079;DHT22;7115;50.150;8.568;2024-03-02T08:52:16;11.80;99.90
14079;DHT22;7115;50.150;8.568;2024-03-02T08:54:43;11.50;99.90
14079;DHT22;7115;50.150;8.568;2024-03-02T08:57:12;11.30;99.90
14079;DHT22;7115;50.150;8.568;2024-03-02T08:59:39;11.10;99.90
14079;DHT22;7115;50.150;8.568;2024-03-02T09:02:06;10.90;99.90
14079;DHT22;7115;50.150;8.568;2024-03-02T09:04:33;10.70;99.90
14079;DHT22;7115;50.150;8.568;2024-03-02T09:07:01;10.60;99.90
14079;DHT22;7115;50.150;8.568;2024-03-02T09:09:28;10.60;99.90
14079;DHT22;7115;50.150;8.568;2024-03-02T09:11:55;10.50;99.90
14079;DHT22;7115;50.150;8.568;2024-03-02T09:14:26;10.40;99.90
14079;DHT22;7115;50.150;8.568;2024-03-02T09:16:53;10.40;99.90
14079;DHT22;7115;50.150;8.568;2024-03-02T09:19:20;10.30;99.90
14079;DHT22;7115;50.150;8.568;2024-03-02T09:21:46;10.30;99.90
14079;DHT22;7115;50.150;8.568;2024-03-02T09:24:13;10.30;99.90
14079;DHT22;7115;50.150;8.568;2024-03-02T09:26:44;10.20;99.90
14079;DHT22;7115;50.150;8.568;2024-03-02T09:29:11;10.20;99.90
14079;DHT22;7115;50.150;8.568;2024-03-02T09:31:41;10.20;99.90
14079;DHT22;7115;50.150;8.568;2024-03-02T09:34:08;10.30;99.90
14079;DHT22;7115;50.150;8.568;2024-03-02T09:36:35;10.30;99.90
14079;DHT22;7115;50.150;8.568;2024-03-02T09:39:02;10.30;99.90
14079;DHT22;7115;50.150;8.568;2024-03-02T09:41:31;10.40;99.90
14079;DHT22;7115;50.150;8.568;2024-03-02T09:44:00;10.70;99.90
14079;DHT22;7115;50.150;8.568;2024-03-02T09:46:27;11.00;99.90
14079;DHT22;7115;50.150;8.568;2024-03-02T09:48:55;11.20;99.90
14079;DHT22;7115;50.150;8.568;2024-03-02T09:51:23;11.40;99.90
14079;DHT22;7115;50.150;8.568;2024-03-02T09:53:50;11.70;99.90
14079;DHT22;7115;50.150;8.568;2024-03-02T09:56:17;12.10;99.90
14079;DHT22;7115;50.150;8.568;2024-03-02T09:58:45;12.40;99.90
14079;DHT22;7115;50.150;8.568;2024-03-02T10:01:12;12.70;99.90
14079;DHT22;7115;50.150;8.568;2024-03-02T10:03:39;12.90;99.90
14079;DHT22;7115;50.150;8.568;2024-03-02T10:06:20;13.10;99.90
14079;DHT22;7115;50.150;8.568;2024-03-02T10:08:48;13.30;99.90
14079;DHT22;7115;50.150;8.568;2024-03-02T10:11:28;13.30;99.90
14079;DHT22;7115;50.150;8.568;2024-03-02T10:14:06;13.30;99.90
14079;DHT22;7115;50.150;8.568;2024-03-02T10:16:37;13.20;99.90
14079;DHT22;7115;50.150;8.568;2024-03-02T10:19:17;13.20;99.90
14079;DHT22;7115;50.150;8.568;2024-03-02T10:21:46;13.30;99.90
14079;DHT22;7115;50.150;8.568;2024-03-02T10:24:13;13.30;99.90
14079;DHT22;7115;50.150;8.568;2024-03-02T10:26:40;13.30;99.90
14079;DHT22;7115;50.150;8.568;2024-03-02T10:29:09;13.30;99.90
14079;DHT22;7115;50.150;8.568;2024-03-02T10:31:37;13.30;99.90
14079;DHT22;7115;50.150;8.568;2024-03-02T10:34:05;13.30;99.90
14079;DHT22;7115;50.150;8.568;2024-03-02T10:36:32;13.60;99.90
14079;DHT22;7115;50.150;8.568;2024-03-02T10:39:02;13.90;99.90
14079;DHT22;7115;50.150;8.568;2024-03-02T10:41:32;14.50;99.90
14079;DHT22;7115;50.150;8.568;2024-03-02T10:44:02;15.20;99.90
14079;DHT22;7115;50.150;8.568;2024-03-02T10:46:30;16.30;99.90
14079;DHT22;7115;50.150;8.568;2024-03-02T10:48:57;17.20;99.90
14079;DHT22;7115;50.150;8.568;2024-03-02T10:51:34;17.50;99.90
14079;DHT22;7115;50.150;8.568;2024-03-02T10:54:04;17.80;99.90
14079;DHT22;7115;50.150;8.568;2024-03-02T10:56:33;18.30;99.90
14079;DHT22;7115;50.150;8.568;2024-03-02T10:59:11;19.00;99.40
14079;DHT22;7115;50.150;8.568;2024-03-02T11:01:39;19.70;98.50
14079;DHT22;7115;50.150;8.568;2024-03-02T11:04:08;20.00;98.20
14079;DHT22;7115;50.150;8.568;2024-03-02T11:06:36;20.20;97.30
14079;DHT22;7115;50.150;8.568;2024-03-02T11:09:08;20.40;96.80
14079;DHT22;7115;50.150;8.568;2024-03-02T11:11:39;20.70;96.20
14079;DHT22;7115;50.150;8.568;2024-03-02T11:14:13;20.70;95.70
14079;DHT22;7115;50.150;8.568;2024-03-02T11:16:40;20.70;95.50
14079;DHT22;7115;50.150;8.568;2024-03-02T11:19:10;20.90;95.20
14079;DHT22;7115;50.150;8.568;2024-03-02T11:21:40;21.00;94.70
14079;DHT22;7115;50.150;8.568;2024-03-02T11:24:33;20.90;94.30
14079;DHT22;7115;50.150;8.568;2024-03-02T11:27:05;20.60;93.80
14079;DHT22;7115;50.150;8.568;2024-03-02T11:29:46;20.20;94.10
14079;DHT22;7115;50.150;8.568;2024-03-02T11:32:21;19.90;94.00
14079;DHT22;7115;50.150;8.568;2024-03-02T11:34:50;19.60;94.00
14079;DHT22;7115;50.150;8.568;2024-03-02T11:37:18;19.10;94.50
14079;DHT22;7115;50.150;8.568;2024-03-02T11:39:48;18.70;94.40
14079;DHT22;7115;50.150;8.568;2024-03-02T11:42:16;18.50;94.50
14079;DHT22;7115;50.150;8.568;2024-03-02T11:44:45;18.40;94.50
14079;DHT22;7115;50.150;8.568;2024-03-02T11:47:14;18.20;94.50
14079;DHT22;7115;50.150;8.568;2024-03-02T11:49:42;17.80;94.70
14079;DHT22;7115;50.150;8.568;2024-03-02T11:52:10;17.50;94.80
14079;DHT22;7115;50.150;8.568;2024-03-02T11:54:39;17.30;95.00
14079;DHT22;7115;50.150;8.568;2024-03-02T11:57:07;17.20;95.10
14079;DHT22;7115;50.150;8.568;2024-03-02T11:59:35;17.10;95.20
14079;DHT22;7115;50.150;8.568;2024-03-02T12:02:02;16.90;95.30
14079;DHT22;7115;50.150;8.568;2024-03-02T12:04:30;16.80;95.40
14079;DHT22;7115;50.150;8.568;2024-03-02T12:06:59;16.70;95.50
14079;DHT22;7115;50.150;8.568;2024-03-02T12:09:27;16.60;95.70
14079;DHT22;7115;50.150;8.568;2024-03-02T12:12:04;16.60;95.80
14079;DHT22;7115;50.150;8.568;2024-03-02T12:14:34;16.50;95.80
14079;DHT22;7115;50.150;8.568;2024-03-02T12:17:01;16.60;95.90
14079;DHT22;7115;50.150;8.568;2024-03-02T12:19:28;16.60;96.00
14079;DHT22;7115;50.150;8.568;2024-03-02T12:21:56;16.60;95.90
14079;DHT22;7115;50.150;8.568;2024-03-02T12:24:26;16.70;95.90
14079;DHT22;7115;50.150;8.568;2024-03-02T12:26:54;16.70;95.90
14079;DHT22;7115;50.150;8.568;2024-03-02T12:29:21;16.70;95.90
14079;DHT22;7115;50.150;8.568;2024-03-02T12:31:51;16.70;95.90
14079;DHT22;7115;50.150;8.568;2024-03-02T12:34:19;16.70;96.00
14079;DHT22;7115;50.150;8.568;2024-03-02T12:36:47;16.70;96.00
14079;DHT22;7115;50.150;8.568;2024-03-02T12:39:16;16.60;96.00
14079;DHT22;7115;50.150;8.568;2024-03-02T12:41:43;16.70;96.30
14079;DHT22;7115;50.150;8.568;2024-03-02T12:44:10;16.70;96.00
14079;DHT22;7115;50.150;8.568;2024-03-02T12:46:37;16.80;96.00
14079;DHT22;7115;50.150;8.568;2024-03-02T12:49:10;16.80;96.00
14079;DHT22;7115;50.150;8.568;2024-03-02T12:51:39;16.80;96.00
14079;DHT22;7115;50.150;8.568;2024-03-02T12:54:10;17.00;96.00
14079;DHT22;7115;50.150;8.568;2024-03-02T12:56:37;17.20;95.90
14079;DHT22;7115;50.150;8.568;2024-03-02T12:59:04;17.40;95.80
14079;DHT22;7115;50.150;8.568;2024-03-02T13:01:32;17.60;95.60
14079;DHT22;7115;50.150;8.568;2024-03-02T13:03:59;17.70;95.50
14079;DHT22;7115;50.150;8.568;2024-03-02T13:06:27;17.80;95.40
14079;DHT22;7115;50.150;8.568;2024-03-02T13:08:55;17.70;95.30
14079;DHT22;7115;50.150;8.568;2024-03-02T13:11:22;17.70;95.30
14079;DHT22;7115;50.150;8.568;2024-03-02T13:13:52;17.50;95.40
14079;DHT22;7115;50.150;8.568;2024-03-02T13:16:19;17.40;95.40
14079;DHT22;7115;50.150;8.568;2024-03-02T13:18:55;17.40;95.50
14079;DHT22;7115;50.150;8.568;2024-03-02T13:21:22;17.40;95.60
14079;DHT22;7115;50.150;8.568;2024-03-02T13:23:51;17.50;95.60
14079;DHT22;7115;50.150;8.568;2024-03-02T13:26:18;17.70;95.60
14079;DHT22;7115;50.150;8.568;2024-03-02T13:28:45;17.80;95.40
14079;DHT22;7115;50.150;8.568;2024-03-02T13:31:12;17.90;95.30
14079;DHT22;7115;50.150;8.568;2024-03-02T13:33:39;17.90;95.30
14079;DHT22;7115;50.150;8.568;2024-03-02T13:36:07;17.90;95.10
14079;DHT22;7115;50.150;8.568;2024-03-02T13:38:34;18.00;95.10
14079;DHT22;7115;50.150;8.568;2024-03-02T13:41:02;18.00;94.90
14079;DHT22;7115;50.150;8.568;2024-03-02T13:43:29;18.00;94.70
14079;DHT22;7115;50.150;8.568;2024-03-02T13:45:59;17.90;94.70
14079;DHT22;7115;50.150;8.568;2024-03-02T13:48:26;17.90;94.70
14079;DHT22;7115;50.150;8.568;2024-03-02T13:50:54;18.00;94.70
14079;DHT22;7115;50.150;8.568;2024-03-02T13:53:20;18.10;94.70
14079;DHT22;7115;50.150;8.568;2024-03-02T13:55:48;18.20;94.60
14079;DHT22;7115;50.150;8.568;2024-03-02T13:58:16;18.30;94.50
14079;DHT22;7115;50.150;8.568;2024-03-02T14:00:45;18.30;94.30
14079;DHT22;7115;50.150;8.568;2024-03-02T14:03:12;18.20;94.50
14079;DHT22;7115;50.150;8.568;2024-03-02T14:05:39;18.30;94.20
14079;DHT22;7115;50.150;8.568;2024-03-02T14:08:06;18.40;94.20
14079;DHT22;7115;50.150;8.568;2024-03-02T14:10:33;18.40;94.20
14079;DHT22;7115;50.150;8.568;2024-03-02T14:13:00;18.50;94.20
14079;DHT22;7115;50.150;8.568;2024-03-02T14:15:28;18.60;94.20
14079;DHT22;7115;50.150;8.568;2024-03-02T14:17:57;18.60;94.10
14079;DHT22;7115;50.150;8.568;2024-03-02T14:20:24;18.60;94.10
14079;DHT22;7115;50.150;8.568;2024-03-02T14:22:51;18.70;94.00
14079;DHT22;7115;50.150;8.568;2024-03-02T14:25:18;18.60;94.00
14079;DHT22;7115;50.150;8.568;2024-03-02T14:27:46;18.50;93.80
14079;DHT22;7115;50.150;8.568;2024-03-02T14:30:34;18.30;93.80
14079;DHT22;7115;50.150;8.568;2024-03-02T14:33:02;18.40;93.80
14079;DHT22;7115;50.150;8.568;2024-03-02T14:35:29;18.30;93.90
14079;DHT22;7115;50.150;8.568;2024-03-02T14:37:56;18.30;93.90
14079;DHT22;7115;50.150;8.568;2024-03-02T14:40:24;18.20;93.90
14079;DHT22;7115;50.150;8.568;2024-03-02T14:42:53;18.10;93.80
14079;DHT22;7115;50.150;8.568;2024-03-02T14:45:20;18.00;93.80
14079;DHT22;7115;50.150;8.568;2024-03-02T14:47:49;18.00;93.90
14079;DHT22;7115;50.150;8.568;2024-03-02T14:50:17;18.00;93.90
14079;DHT22;7115;50.150;8.568;2024-03-02T14:52:44;18.10;93.80
14079;DHT22;7115;50.150;8.568;2024-03-02T14:55:12;18.10;93.80
14079;DHT22;7115;50.150;8.568;2024-03-02T14:57:39;18.10;93.60
14079;DHT22;7115;50.150;8.568;2024-03-02T15:00:07;17.90;93.40
14079;DHT22;7115;50.150;8.568;2024-03-02T15:02:38;17.70;93.30
14079;DHT22;7115;50.150;8.568;2024-03-02T15:05:07;17.50;93.40
14079;DHT22;7115;50.150;8.568;2024-03-02T15:07:34;17.30;93.60
14079;DHT22;7115;50.150;8.568;2024-03-02T15:10:01;17.30;93.80
14079;DHT22;7115;50.150;8.568;2024-03-02T15:12:28;17.20;94.00
14079;DHT22;7115;50.150;8.568;2024-03-02T15:14:55;17.20;94.30
14079;DHT22;7115;50.150;8.568;2024-03-02T15:17:23;17.10;94.50
14079;DHT22;7115;50.150;8.568;2024-03-02T15:19:50;17.00;94.70
14079;DHT22;7115;50.150;8.568;2024-03-02T15:22:18;16.90;94.80
14079;DHT22;7115;50.150;8.568;2024-03-02T15:24:45;16.80;94.90
14079;DHT22;7115;50.150;8.568;2024-03-02T15:27:12;16.70;95.10
14079;DHT22;7115;50.150;8.568;2024-03-02T15:29:39;16.70;95.30
14079;DHT22;7115;50.150;8.568;2024-03-02T15:32:07;16.60;95.30
14079;DHT22;7115;50.150;8.568;2024-03-02T15:34:34;16.60;95.40
14079;DHT22;7115;50.150;8.568;2024-03-02T15:37:02;16.60;95.50
14079;DHT22;7115;50.150;8.568;2024-03-02T15:39:32;16.50;95.60
14079;DHT22;7115;50.150;8.568;2024-03-02T15:41:59;16.60;95.70
14079;DHT22;7115;50.150;8.568;2024-03-02T15:44:26;16.50;95.80
14079;DHT22;7115;50.150;8.568;2024-03-02T15:46:53;16.60;95.80
14079;DHT22;7115;50.150;8.568;2024-03-02T15:49:20;16.60;95.80
14079;DHT22;7115;50.150;8.568;2024-03-02T15:51:47;16.60;95.80
14079;DHT22;7115;50.150;8.568;2024-03-02T15:54:14;16.60;95.80
14079;DHT22;7115;50.150;8.568;2024-03-02T15:56:43;16.60;95.80
14079;DHT22;7115;50.150;8.568;2024-03-02T15:59:10;16.60;95.80
14079;DHT22;7115;50.150;8.568;2024-03-02T16:01:37;16.60;95.80